sensor_id;sensor_type;location;lat;lon;timestamp;P1;durP1;ratioP1;P2;durP2;ratioP2
15126;SDS011;7664;52.008;4.748;2022-07-11T00:01:48;4.32;;;1.42;;
15126;SDS011;7664;52.008;4.748;2022-07-11T00:04:17;5.13;;;1.60;;
15126;SDS011;7664;52.008;4.748;2022-07-11T00:06:45;7.13;;;1.70;;
15126;SDS011;7664;52.008;4.748;2022-07-11T00:09:14;7.63;;;1.73;;
15126;SDS011;7664;52.008;4.748;2022-07-11T00:11:43;2.55;;;1.33;;
15126;SDS011;7664;52.008;4.748;2022-07-11T00:14:11;4.35;;;1.63;;
15126;SDS011;7664;52.008;4.748;2022-07-11T00:16:39;5.10;;;2.33;;
15126;SDS011;7664;52.008;4.748;2022-07-11T00:19:07;5.28;;;2.10;;
15126;SDS011;7664;52.008;4.748;2022-07-11T00:21:35;6.40;;;2.00;;
15126;SDS011;7664;52.008;4.748;2022-07-11T00:24:05;2.88;;;1.88;;
15126;SDS011;7664;52.008;4.748;2022-07-11T00:26:35;1.95;;;1.75;;
15126;SDS011;7664;52.008;4.748;2022-07-11T00:29:03;3.38;;;1.65;;
15126;SDS011;7664;52.008;4.748;2022-07-11T00:31:31;4.65;;;2.25;;
15126;SDS011;7664;52.008;4.748;2022-07-11T00:34:00;4.15;;;1.70;;
15126;SDS011;7664;52.008;4.748;2022-07-11T00:36:28;8.57;;;2.38;;
15126;SDS011;7664;52.008;4.748;2022-07-11T00:38:57;5.30;;;2.47;;
15126;SDS011;7664;52.008;4.748;2022-07-11T00:41:25;4.20;;;2.65;;
15126;SDS011;7664;52.008;4.748;2022-07-11T00:43:55;8.10;;;2.55;;
15126;SDS011;7664;52.008;4.748;2022-07-11T00:46:25;4.28;;;2.20;;
15126;SDS011;7664;52.008;4.748;2022-07-11T00:48:54;3.15;;;2.30;;
15126;SDS011;7664;52.008;4.748;2022-07-11T00:51:23;6.03;;;2.15;;
15126;SDS011;7664;52.008;4.748;2022-07-11T00:53:52;2.65;;;1.85;;
15126;SDS011;7664;52.008;4.748;2022-07-11T00:56:23;3.13;;;2.13;;
15126;SDS011;7664;52.008;4.748;2022-07-11T00:58:52;2.13;;;1.63;;
15126;SDS011;7664;52.008;4.748;2022-07-11T01:01:22;2.00;;;1.70;;
15126;SDS011;7664;52.008;4.748;2022-07-11T01:03:50;4.15;;;1.70;;
15126;SDS011;7664;52.008;4.748;2022-07-11T01:06:19;4.32;;;1.70;;
15126;SDS011;7664;52.008;4.748;2022-07-11T01:08:47;4.07;;;2.05;;
15126;SDS011;7664;52.008;4.748;2022-07-11T01:11:15;3.60;;;2.00;;
15126;SDS011;7664;52.008;4.748;2022-07-11T01:13:45;5.32;;;2.55;;
15126;SDS011;7664;52.008;4.748;2022-07-11T01:16:15;2.65;;;1.80;;
15126;SDS011;7664;52.008;4.748;2022-07-11T01:18:46;6.47;;;1.70;;
15126;SDS011;7664;52.008;4.748;2022-07-11T01:21:19;2.55;;;1.60;;
15126;SDS011;7664;52.008;4.748;2022-07-11T01:23:51;3.30;;;1.60;;
15126;SDS011;7664;52.008;4.748;2022-07-11T01:26:21;5.10;;;1.83;;
15126;SDS011;7664;52.008;4.748;2022-07-11T01:28:50;2.75;;;1.55;;
15126;SDS011;7664;52.008;4.748;2022-07-11T01:31:18;2.50;;;1.50;;
15126;SDS011;7664;52.008;4.748;2022-07-11T01:33:47;2.90;;;1.52;;
15126;SDS011;7664;52.008;4.748;2022-07-11T01:36:15;3.42;;;1.50;;
15126;SDS011;7664;52.008;4.748;2022-07-11T01:38:44;4.00;;;1.67;;
15126;SDS011;7664;52.008;4.748;2022-07-11T01:41:13;5.18;;;1.55;;
15126;SDS011;7664;52.008;4.748;2022-07-11T01:43:41;4.10;;;1.70;;
15126;SDS011;7664;52.008;4.748;2022-07-11T01:46:10;3.30;;;1.73;;
15126;SDS011;7664;52.008;4.748;2022-07-11T01:48:38;6.15;;;3.03;;
15126;SDS011;7664;52.008;4.748;2022-07-11T01:51:06;6.30;;;2.58;;
15126;SDS011;7664;52.008;4.748;2022-07-11T01:53:35;4.32;;;3.30;;
15126;SDS011;7664;52.008;4.748;2022-07-11T01:56:03;3.05;;;2.75;;
15126;SDS011;7664;52.008;4.748;2022-07-11T01:58:53;5.03;;;3.20;;
15126;SDS011;7664;52.008;4.748;2022-07-11T02:01:21;6.53;;;3.83;;
15126;SDS011;7664;52.008;4.748;2022-07-11T02:03:49;5.72;;;3.70;;
15126;SDS011;7664;52.008;4.748;2022-07-11T02:06:17;5.78;;;4.30;;
15126;SDS011;7664;52.008;4.748;2022-07-11T02:08:46;6.53;;;3.72;;
15126;SDS011;7664;52.008;4.748;2022-07-11T02:11:13;6.30;;;4.60;;
15126;SDS011;7664;52.008;4.748;2022-07-11T02:13:41;5.75;;;4.03;;
15126;SDS011;7664;52.008;4.748;2022-07-11T02:16:12;6.40;;;4.13;;
15126;SDS011;7664;52.008;4.748;2022-07-11T02:18:40;8.40;;;4.72;;
15126;SDS011;7664;52.008;4.748;2022-07-11T02:21:08;4.50;;;3.88;;
15126;SDS011;7664;52.008;4.748;2022-07-11T02:23:36;7.18;;;4.70;;
15126;SDS011;7664;52.008;4.748;2022-07-11T02:26:04;8.55;;;4.35;;
15126;SDS011;7664;52.008;4.748;2022-07-11T02:28:32;8.35;;;4.43;;
15126;SDS011;7664;52.008;4.748;2022-07-11T02:31:00;8.93;;;5.20;;
15126;SDS011;7664;52.008;4.748;2022-07-11T02:33:30;7.10;;;4.70;;
15126;SDS011;7664;52.008;4.748;2022-07-11T02:35:58;8.07;;;4.55;;
15126;SDS011;7664;52.008;4.748;2022-07-11T02:38:26;5.95;;;4.28;;
15126;SDS011;7664;52.008;4.748;2022-07-11T02:40:54;5.00;;;4.07;;
15126;SDS011;7664;52.008;4.748;2022-07-11T02:43:22;6.15;;;3.60;;
15126;SDS011;7664;52.008;4.748;2022-07-11T02:45:50;5.35;;;4.03;;
15126;SDS011;7664;52.008;4.748;2022-07-11T02:48:18;6.63;;;4.50;;
15126;SDS011;7664;52.008;4.748;2022-07-11T02:50:47;8.75;;;5.65;;
15126;SDS011;7664;52.008;4.748;2022-07-11T02:53:15;7.20;;;4.63;;
15126;SDS011;7664;52.008;4.748;2022-07-11T02:55:43;8.02;;;4.57;;
15126;SDS011;7664;52.008;4.748;2022-07-11T02:58:11;9.10;;;5.07;;
15126;SDS011;7664;52.008;4.748;2022-07-11T03:00:39;8.60;;;5.50;;
15126;SDS011;7664;52.008;4.748;2022-07-11T03:03:07;6.85;;;4.78;;
15126;SDS011;7664;52.008;4.748;2022-07-11T03:05:35;8.32;;;5.10;;
15126;SDS011;7664;52.008;4.748;2022-07-11T03:08:04;7.43;;;5.53;;
15126;SDS011;7664;52.008;4.748;2022-07-11T03:10:32;8.18;;;4.75;;
15126;SDS011;7664;52.008;4.748;2022-07-11T03:13:00;6.40;;;4.55;;
15126;SDS011;7664;52.008;4.748;2022-07-11T03:15:28;6.57;;;4.78;;
15126;SDS011;7664;52.008;4.748;2022-07-11T03:17:56;15.88;;;5.22;;
15126;SDS011;7664;52.008;4.748;2022-07-11T03:20:24;6.43;;;4.82;;
15126;SDS011;7664;52.008;4.748;2022-07-11T03:22:52;6.05;;;4.43;;
15126;SDS011;7664;52.008;4.748;2022-07-11T03:25:21;8.65;;;4.38;;
15126;SDS011;7664;52.008;4.748;2022-07-11T03:27:49;6.32;;;3.80;;
15126;SDS011;7664;52.008;4.748;2022-07-11T03:30:17;8.55;;;3.53;;
15126;SDS011;7664;52.008;4.748;2022-07-11T03:32:45;10.45;;;5.30;;
15126;SDS011;7664;52.008;4.748;2022-07-11T03:35:12;7.72;;;4.75;;
15126;SDS011;7664;52.008;4.748;2022-07-11T03:37:58;5.68;;;3.70;;
15126;SDS011;7664;52.008;4.748;2022-07-11T03:40:27;4.38;;;3.40;;
15126;SDS011;7664;52.008;4.748;2022-07-11T03:42:55;7.85;;;3.67;;
15126;SDS011;7664;52.008;4.748;2022-07-11T03:45:23;4.82;;;3.83;;
15126;SDS011;7664;52.008;4.748;2022-07-11T03:47:51;6.32;;;3.88;;
15126;SDS011;7664;52.008;4.748;2022-07-11T03:50:19;5.95;;;3.67;;
15126;SDS011;7664;52.008;4.748;2022-07-11T03:52:47;7.00;;;4.03;;
15126;SDS011;7664;52.008;4.748;2022-07-11T03:55:15;5.35;;;3.35;;
15126;SDS011;7664;52.008;4.748;2022-07-11T03:57:44;7.20;;;4.13;;
15126;SDS011;7664;52.008;4.748;2022-07-11T04:00:12;4.80;;;3.30;;
15126;SDS011;7664;52.008;4.748;2022-07-11T04:02:41;7.20;;;3.60;;
15126;SDS011;7664;52.008;4.748;2022-07-11T04:05:09;5.03;;;3.80;;
15126;SDS011;7664;52.008;4.748;2022-07-11T04:07:37;7.10;;;3.08;;
15126;SDS011;7664;52.008;4.748;2022-07-11T04:10:05;5.32;;;3.33;;
15126;SDS011;7664;52.008;4.748;2022-07-11T04:12:34;4.15;;;2.67;;
15126;SDS011;7664;52.008;4.748;2022-07-11T04:15:04;3.67;;;2.60;;
15126;SDS011;7664;52.008;4.748;2022-07-11T04:17:33;3.58;;;2.22;;
15126;SDS011;7664;52.008;4.748;2022-07-11T04:20:00;3.95;;;2.40;;
15126;SDS011;7664;52.008;4.748;2022-07-11T04:22:29;3.80;;;2.10;;
15126;SDS011;7664;52.008;4.748;2022-07-11T04:24:57;1.70;;;1.15;;
15126;SDS011;7664;52.008;4.748;2022-07-11T04:27:24;2.88;;;1.63;;
15126;SDS011;7664;52.008;4.748;2022-07-11T04:29:56;2.72;;;1.20;;
15126;SDS011;7664;52.008;4.748;2022-07-11T04:32:25;0.77;;;0.73;;
15126;SDS011;7664;52.008;4.748;2022-07-11T04:34:53;3.00;;;1.10;;
15126;SDS011;7664;52.008;4.748;2022-07-11T04:37:21;1.48;;;0.90;;
15126;SDS011;7664;52.008;4.748;2022-07-11T04:39:49;1.08;;;0.85;;
15126;SDS011;7664;52.008;4.748;2022-07-11T04:42:17;1.52;;;0.75;;
15126;SDS011;7664;52.008;4.748;2022-07-11T04:44:45;1.70;;;0.80;;
15126;SDS011;7664;52.008;4.748;2022-07-11T04:47:12;2.42;;;1.05;;
15126;SDS011;7664;52.008;4.748;2022-07-11T04:49:42;1.48;;;0.60;;
15126;SDS011;7664;52.008;4.748;2022-07-11T04:52:13;1.05;;;0.70;;
15126;SDS011;7664;52.008;4.748;2022-07-11T04:54:41;2.25;;;0.70;;
15126;SDS011;7664;52.008;4.748;2022-07-11T04:57:08;2.83;;;0.90;;
15126;SDS011;7664;52.008;4.748;2022-07-11T04:59:37;2.92;;;0.88;;
15126;SDS011;7664;52.008;4.748;2022-07-11T05:02:05;0.82;;;0.82;;
15126;SDS011;7664;52.008;4.748;2022-07-11T05:04:35;1.67;;;0.60;;
15126;SDS011;7664;52.008;4.748;2022-07-11T05:07:04;1.80;;;0.70;;
15126;SDS011;7664;52.008;4.748;2022-07-11T05:09:32;0.88;;;0.82;;
15126;SDS011;7664;52.008;4.748;2022-07-11T05:12:00;3.15;;;1.17;;
15126;SDS011;7664;52.008;4.748;2022-07-11T05:14:28;1.75;;;0.80;;
15126;SDS011;7664;52.008;4.748;2022-07-11T05:16:56;2.47;;;1.17;;
15126;SDS011;7664;52.008;4.748;2022-07-11T05:19:24;2.22;;;1.35;;
15126;SDS011;7664;52.008;4.748;2022-07-11T05:21:52;2.97;;;1.33;;
15126;SDS011;7664;52.008;4.748;2022-07-11T05:24:21;3.63;;;1.40;;
15126;SDS011;7664;52.008;4.748;2022-07-11T05:26:49;1.80;;;1.27;;
15126;SDS011;7664;52.008;4.748;2022-07-11T05:29:17;1.45;;;1.35;;
15126;SDS011;7664;52.008;4.748;2022-07-11T05:31:44;2.25;;;0.80;;
15126;SDS011;7664;52.008;4.748;2022-07-11T05:34:17;1.05;;;0.95;;
15126;SDS011;7664;52.008;4.748;2022-07-11T05:36:45;2.72;;;0.70;;
15126;SDS011;7664;52.008;4.748;2022-07-11T05:39:13;0.77;;;0.70;;
15126;SDS011;7664;52.008;4.748;2022-07-11T05:41:43;0.50;;;0.50;;
15126;SDS011;7664;52.008;4.748;2022-07-11T05:44:11;1.38;;;0.68;;
15126;SDS011;7664;52.008;4.748;2022-07-11T05:46:39;1.48;;;0.60;;
15126;SDS011;7664;52.008;4.748;2022-07-11T05:49:07;0.93;;;0.55;;
15126;SDS011;7664;52.008;4.748;2022-07-11T05:51:35;2.58;;;0.88;;
15126;SDS011;7664;52.008;4.748;2022-07-11T05:54:03;0.60;;;0.60;;
15126;SDS011;7664;52.008;4.748;2022-07-11T05:56:31;2.13;;;0.85;;
15126;SDS011;7664;52.008;4.748;2022-07-11T05:59:00;0.65;;;0.65;;
15126;SDS011;7664;52.008;4.748;2022-07-11T06:01:28;1.10;;;0.98;;
15126;SDS011;7664;52.008;4.748;2022-07-11T06:04:05;3.40;;;1.10;;
15126;SDS011;7664;52.008;4.748;2022-07-11T06:06:35;0.75;;;0.68;;
15126;SDS011;7664;52.008;4.748;2022-07-11T06:09:05;0.85;;;0.80;;
15126;SDS011;7664;52.008;4.748;2022-07-11T06:11:32;1.58;;;1.10;;
15126;SDS011;7664;52.008;4.748;2022-07-11T06:14:06;1.38;;;1.17;;
15126;SDS011;7664;52.008;4.748;2022-07-11T06:16:34;3.30;;;1.73;;
15126;SDS011;7664;52.008;4.748;2022-07-11T06:19:02;3.42;;;1.50;;
15126;SDS011;7664;52.008;4.748;2022-07-11T06:21:30;4.25;;;2.03;;
15126;SDS011;7664;52.008;4.748;2022-07-11T06:23:58;3.38;;;2.38;;
15126;SDS011;7664;52.008;4.748;2022-07-11T06:26:27;2.47;;;2.10;;
15126;SDS011;7664;52.008;4.748;2022-07-11T06:28:56;5.43;;;2.83;;
15126;SDS011;7664;52.008;4.748;2022-07-11T06:31:25;2.47;;;2.03;;
15126;SDS011;7664;52.008;4.748;2022-07-11T06:33:55;3.05;;;1.65;;
15126;SDS011;7664;52.008;4.748;2022-07-11T06:36:24;6.80;;;1.73;;
15126;SDS011;7664;52.008;4.748;2022-07-11T06:38:56;1.95;;;1.10;;
15126;SDS011;7664;52.008;4.748;2022-07-11T06:41:24;2.13;;;1.20;;
15126;SDS011;7664;52.008;4.748;2022-07-11T06:43:52;2.42;;;1.10;;
15126;SDS011;7664;52.008;4.748;2022-07-11T06:46:20;1.25;;;0.85;;
15126;SDS011;7664;52.008;4.748;2022-07-11T06:48:49;2.58;;;1.00;;
15126;SDS011;7664;52.008;4.748;2022-07-11T06:51:17;1.90;;;1.13;;
15126;SDS011;7664;52.008;4.748;2022-07-11T06:53:45;1.45;;;1.13;;
15126;SDS011;7664;52.008;4.748;2022-07-11T06:56:13;2.92;;;1.70;;
15126;SDS011;7664;52.008;4.748;2022-07-11T06:58:41;2.45;;;0.95;;
15126;SDS011;7664;52.008;4.748;2022-07-11T07:01:09;1.70;;;1.08;;
15126;SDS011;7664;52.008;4.748;2022-07-11T07:03:37;6.72;;;3.58;;
15126;SDS011;7664;52.008;4.748;2022-07-11T07:06:06;5.22;;;4.00;;
15126;SDS011;7664;52.008;4.748;2022-07-11T07:08:34;4.63;;;3.22;;
15126;SDS011;7664;52.008;4.748;2022-07-11T07:11:02;5.45;;;4.00;;
15126;SDS011;7664;52.008;4.748;2022-07-11T07:13:34;4.05;;;3.30;;
15126;SDS011;7664;52.008;4.748;2022-07-11T07:16:02;4.50;;;3.35;;
15126;SDS011;7664;52.008;4.748;2022-07-11T07:18:32;5.68;;;3.50;;
15126;SDS011;7664;52.008;4.748;2022-07-11T07:21:00;3.85;;;3.42;;
15126;SDS011;7664;52.008;4.748;2022-07-11T07:23:30;5.28;;;3.90;;
15126;SDS011;7664;52.008;4.748;2022-07-11T07:25:58;7.30;;;5.47;;
15126;SDS011;7664;52.008;4.748;2022-07-11T07:28:26;8.93;;;6.47;;
15126;SDS011;7664;52.008;4.748;2022-07-11T07:30:54;9.50;;;7.32;;
15126;SDS011;7664;52.008;4.748;2022-07-11T07:33:22;13.25;;;8.88;;
15126;SDS011;7664;52.008;4.748;2022-07-11T07:36:10;11.73;;;8.15;;
15126;SDS011;7664;52.008;4.748;2022-07-11T07:38:39;11.18;;;7.40;;
15126;SDS011;7664;52.008;4.748;2022-07-11T07:41:10;12.40;;;7.57;;
15126;SDS011;7664;52.008;4.748;2022-07-11T07:43:39;13.13;;;8.40;;
15126;SDS011;7664;52.008;4.748;2022-07-11T07:46:07;10.30;;;7.90;;
15126;SDS011;7664;52.008;4.748;2022-07-11T07:48:37;11.02;;;8.52;;
15126;SDS011;7664;52.008;4.748;2022-07-11T07:51:05;12.90;;;7.90;;
15126;SDS011;7664;52.008;4.748;2022-07-11T07:53:33;11.32;;;8.70;;
15126;SDS011;7664;52.008;4.748;2022-07-11T07:56:02;12.43;;;8.90;;
15126;SDS011;7664;52.008;4.748;2022-07-11T07:58:31;9.82;;;7.10;;
15126;SDS011;7664;52.008;4.748;2022-07-11T08:00:59;9.88;;;6.93;;
15126;SDS011;7664;52.008;4.748;2022-07-11T08:03:44;8.60;;;6.93;;
15126;SDS011;7664;52.008;4.748;2022-07-11T08:06:12;7.68;;;5.38;;
15126;SDS011;7664;52.008;4.748;2022-07-11T08:08:41;7.15;;;5.25;;
15126;SDS011;7664;52.008;4.748;2022-07-11T08:11:10;7.40;;;5.68;;
15126;SDS011;7664;52.008;4.748;2022-07-11T08:13:56;9.30;;;5.82;;
15126;SDS011;7664;52.008;4.748;2022-07-11T08:16:25;9.13;;;5.30;;
15126;SDS011;7664;52.008;4.748;2022-07-11T08:18:56;8.52;;;6.10;;
15126;SDS011;7664;52.008;4.748;2022-07-11T08:21:26;10.65;;;7.18;;
15126;SDS011;7664;52.008;4.748;2022-07-11T08:23:54;8.15;;;6.18;;
15126;SDS011;7664;52.008;4.748;2022-07-11T08:26:23;6.15;;;5.35;;
15126;SDS011;7664;52.008;4.748;2022-07-11T08:28:58;7.53;;;6.30;;
15126;SDS011;7664;52.008;4.748;2022-07-11T08:31:27;9.80;;;7.15;;
15126;SDS011;7664;52.008;4.748;2022-07-11T08:33:55;10.70;;;7.47;;
15126;SDS011;7664;52.008;4.748;2022-07-11T08:36:25;9.10;;;7.32;;
15126;SDS011;7664;52.008;4.748;2022-07-11T08:38:54;8.20;;;6.35;;
15126;SDS011;7664;52.008;4.748;2022-07-11T08:41:24;7.40;;;5.57;;
15126;SDS011;7664;52.008;4.748;2022-07-11T08:43:52;6.30;;;5.53;;
15126;SDS011;7664;52.008;4.748;2022-07-11T08:46:20;6.95;;;4.93;;
15126;SDS011;7664;52.008;4.748;2022-07-11T08:48:48;6.07;;;4.80;;
15126;SDS011;7664;52.008;4.748;2022-07-11T08:51:17;4.78;;;3.60;;
15126;SDS011;7664;52.008;4.748;2022-07-11T08:53:46;6.82;;;3.53;;
15126;SDS011;7664;52.008;4.748;2022-07-11T08:56:14;5.35;;;3.60;;
15126;SDS011;7664;52.008;4.748;2022-07-11T08:58:46;5.88;;;4.72;;
15126;SDS011;7664;52.008;4.748;2022-07-11T09:01:29;5.03;;;3.67;;
15126;SDS011;7664;52.008;4.748;2022-07-11T09:03:59;7.63;;;4.78;;
15126;SDS011;7664;52.008;4.748;2022-07-11T09:06:27;5.85;;;4.47;;
15126;SDS011;7664;52.008;4.748;2022-07-11T09:08:56;4.07;;;3.67;;
15126;SDS011;7664;52.008;4.748;2022-07-11T09:11:25;4.60;;;4.20;;
15126;SDS011;7664;52.008;4.748;2022-07-11T09:13:55;7.30;;;5.43;;
15126;SDS011;7664;52.008;4.748;2022-07-11T09:16:23;6.47;;;4.93;;
15126;SDS011;7664;52.008;4.748;2022-07-11T09:18:57;8.70;;;5.10;;
15126;SDS011;7664;52.008;4.748;2022-07-11T09:21:25;4.85;;;4.15;;
15126;SDS011;7664;52.008;4.748;2022-07-11T09:24:11;6.97;;;5.20;;
15126;SDS011;7664;52.008;4.748;2022-07-11T09:26:57;4.72;;;4.18;;
15126;SDS011;7664;52.008;4.748;2022-07-11T09:29:26;6.65;;;5.28;;
15126;SDS011;7664;52.008;4.748;2022-07-11T09:31:54;6.68;;;5.35;;
15126;SDS011;7664;52.008;4.748;2022-07-11T09:34:22;5.15;;;4.25;;
15126;SDS011;7664;52.008;4.748;2022-07-11T09:36:54;5.50;;;4.07;;
15126;SDS011;7664;52.008;4.748;2022-07-11T09:39:23;4.70;;;3.67;;
15126;SDS011;7664;52.008;4.748;2022-07-11T09:41:52;4.80;;;4.18;;
15126;SDS011;7664;52.008;4.748;2022-07-11T09:44:21;4.00;;;3.45;;
15126;SDS011;7664;52.008;4.748;2022-07-11T09:46:55;5.32;;;3.65;;
15126;SDS011;7664;52.008;4.748;2022-07-11T09:49:30;3.05;;;2.75;;
15126;SDS011;7664;52.008;4.748;2022-07-11T09:52:06;4.38;;;3.15;;
15126;SDS011;7664;52.008;4.748;2022-07-11T09:54:38;4.57;;;3.42;;
15126;SDS011;7664;52.008;4.748;2022-07-11T09:57:28;4.53;;;3.08;;
15126;SDS011;7664;52.008;4.748;2022-07-11T09:59:56;4.03;;;3.20;;
15126;SDS011;7664;52.008;4.748;2022-07-11T10:02:27;4.50;;;3.00;;
15126;SDS011;7664;52.008;4.748;2022-07-11T10:04:55;3.63;;;2.60;;
15126;SDS011;7664;52.008;4.748;2022-07-11T10:07:26;4.88;;;3.60;;
15126;SDS011;7664;52.008;4.748;2022-07-11T10:09:55;3.80;;;3.28;;
15126;SDS011;7664;52.008;4.748;2022-07-11T10:12:24;6.45;;;3.42;;
15126;SDS011;7664;52.008;4.748;2022-07-11T10:14:52;5.63;;;3.72;;
15126;SDS011;7664;52.008;4.748;2022-07-11T10:17:23;5.10;;;3.08;;
15126;SDS011;7664;52.008;4.748;2022-07-11T10:19:59;3.42;;;2.92;;
15126;SDS011;7664;52.008;4.748;2022-07-11T10:22:34;3.53;;;3.10;;
15126;SDS011;7664;52.008;4.748;2022-07-11T10:25:06;3.75;;;3.22;;
15126;SDS011;7664;52.008;4.748;2022-07-11T10:27:47;5.15;;;3.38;;
15126;SDS011;7664;52.008;4.748;2022-07-11T10:33:15;3.92;;;2.80;;
15126;SDS011;7664;52.008;4.748;2022-07-11T10:35:44;2.65;;;2.45;;
15126;SDS011;7664;52.008;4.748;2022-07-11T10:38:13;2.15;;;1.95;;
15126;SDS011;7664;52.008;4.748;2022-07-11T10:40:48;2.65;;;2.20;;
15126;SDS011;7664;52.008;4.748;2022-07-11T10:43:32;3.10;;;2.50;;
15126;SDS011;7664;52.008;4.748;2022-07-11T10:46:06;3.55;;;2.03;;
15126;SDS011;7664;52.008;4.748;2022-07-11T10:48:55;1.73;;;1.63;;
15126;SDS011;7664;52.008;4.748;2022-07-11T10:51:27;2.33;;;1.30;;
15126;SDS011;7664;52.008;4.748;2022-07-11T10:54:24;2.70;;;1.98;;
15126;SDS011;7664;52.008;4.748;2022-07-11T10:57:04;1.65;;;1.42;;
15126;SDS011;7664;52.008;4.748;2022-07-11T10:59:56;2.63;;;1.90;;
15126;SDS011;7664;52.008;4.748;2022-07-11T11:02:25;1.50;;;1.40;;
15126;SDS011;7664;52.008;4.748;2022-07-11T11:04:56;1.65;;;1.45;;
15126;SDS011;7664;52.008;4.748;2022-07-11T11:07:32;1.23;;;1.08;;
15126;SDS011;7664;52.008;4.748;2022-07-11T11:10:04;2.10;;;1.52;;
15126;SDS011;7664;52.008;4.748;2022-07-11T11:15:42;2.55;;;1.50;;
15126;SDS011;7664;52.008;4.748;2022-07-11T11:24:04;2.28;;;1.77;;
15126;SDS011;7664;52.008;4.748;2022-07-11T11:26:42;2.75;;;1.55;;
15126;SDS011;7664;52.008;4.748;2022-07-11T11:29:23;1.77;;;1.40;;
15126;SDS011;7664;52.008;4.748;2022-07-11T11:31:54;2.08;;;1.67;;
15126;SDS011;7664;52.008;4.748;2022-07-11T11:34:23;2.72;;;1.55;;
15126;SDS011;7664;52.008;4.748;2022-07-11T11:36:54;2.03;;;1.65;;
15126;SDS011;7664;52.008;4.748;2022-07-11T11:39:24;3.13;;;1.80;;
15126;SDS011;7664;52.008;4.748;2022-07-11T11:41:53;1.50;;;1.20;;
15126;SDS011;7664;52.008;4.748;2022-07-11T11:44:27;1.88;;;1.70;;
15126;SDS011;7664;52.008;4.748;2022-07-11T11:46:57;1.52;;;1.25;;
15126;SDS011;7664;52.008;4.748;2022-07-11T11:49:25;2.40;;;1.70;;
15126;SDS011;7664;52.008;4.748;2022-07-11T11:51:55;2.17;;;1.65;;
15126;SDS011;7664;52.008;4.748;2022-07-11T11:54:24;2.65;;;1.38;;
15126;SDS011;7664;52.008;4.748;2022-07-11T11:56:52;1.60;;;1.40;;
15126;SDS011;7664;52.008;4.748;2022-07-11T11:59:28;1.83;;;1.58;;
15126;SDS011;7664;52.008;4.748;2022-07-11T12:01:57;2.92;;;1.70;;
15126;SDS011;7664;52.008;4.748;2022-07-11T12:04:29;1.67;;;1.42;;
15126;SDS011;7664;52.008;4.748;2022-07-11T12:07:00;1.75;;;1.38;;
15126;SDS011;7664;52.008;4.748;2022-07-11T12:09:30;1.33;;;1.15;;
15126;SDS011;7664;52.008;4.748;2022-07-11T12:12:16;1.50;;;1.27;;
15126;SDS011;7664;52.008;4.748;2022-07-11T12:15:03;3.10;;;1.60;;
15126;SDS011;7664;52.008;4.748;2022-07-11T12:17:32;1.95;;;1.50;;
15126;SDS011;7664;52.008;4.748;2022-07-11T12:20:01;1.85;;;1.60;;
15126;SDS011;7664;52.008;4.748;2022-07-11T12:22:41;2.55;;;1.38;;
15126;SDS011;7664;52.008;4.748;2022-07-11T12:25:10;2.88;;;1.52;;
15126;SDS011;7664;52.008;4.748;2022-07-11T12:27:38;1.75;;;1.42;;
15126;SDS011;7664;52.008;4.748;2022-07-11T12:30:07;2.42;;;1.80;;
15126;SDS011;7664;52.008;4.748;2022-07-11T12:33:01;4.60;;;1.98;;
15126;SDS011;7664;52.008;4.748;2022-07-11T12:35:30;2.28;;;1.95;;
15126;SDS011;7664;52.008;4.748;2022-07-11T12:37:59;1.30;;;1.20;;
15126;SDS011;7664;52.008;4.748;2022-07-11T12:40:28;2.67;;;1.67;;
15126;SDS011;7664;52.008;4.748;2022-07-11T12:42:55;3.22;;;2.15;;
15126;SDS011;7664;52.008;4.748;2022-07-11T12:45:24;2.25;;;2.05;;
15126;SDS011;7664;52.008;4.748;2022-07-11T12:47:51;2.45;;;1.50;;
15126;SDS011;7664;52.008;4.748;2022-07-11T12:50:21;4.80;;;2.85;;
15126;SDS011;7664;52.008;4.748;2022-07-11T12:52:50;2.30;;;1.90;;
15126;SDS011;7664;52.008;4.748;2022-07-11T12:55:22;4.03;;;2.05;;
15126;SDS011;7664;52.008;4.748;2022-07-11T12:58:03;3.03;;;1.48;;
15126;SDS011;7664;52.008;4.748;2022-07-11T13:00:33;2.15;;;1.67;;
15126;SDS011;7664;52.008;4.748;2022-07-11T13:03:03;1.70;;;1.40;;
15126;SDS011;7664;52.008;4.748;2022-07-11T13:05:51;2.75;;;1.90;;
15126;SDS011;7664;52.008;4.748;2022-07-11T13:08:26;1.70;;;1.60;;
15126;SDS011;7664;52.008;4.748;2022-07-11T13:11:14;2.72;;;1.85;;
15126;SDS011;7664;52.008;4.748;2022-07-11T13:13:43;2.28;;;1.70;;
15126;SDS011;7664;52.008;4.748;2022-07-11T13:16:13;1.73;;;1.45;;
15126;SDS011;7664;52.008;4.748;2022-07-11T13:18:42;2.25;;;1.75;;
15126;SDS011;7664;52.008;4.748;2022-07-11T13:21:12;2.42;;;1.77;;
15126;SDS011;7664;52.008;4.748;2022-07-11T13:23:40;2.60;;;1.48;;
15126;SDS011;7664;52.008;4.748;2022-07-11T13:26:08;2.20;;;1.70;;
15126;SDS011;7664;52.008;4.748;2022-07-11T13:28:39;3.10;;;2.28;;
15126;SDS011;7664;52.008;4.748;2022-07-11T13:31:07;1.52;;;1.40;;
15126;SDS011;7664;52.008;4.748;2022-07-11T13:33:39;1.23;;;1.13;;
15126;SDS011;7664;52.008;4.748;2022-07-11T13:36:08;2.78;;;2.10;;
15126;SDS011;7664;52.008;4.748;2022-07-11T13:38:37;2.15;;;1.73;;
15126;SDS011;7664;52.008;4.748;2022-07-11T13:41:05;1.90;;;1.70;;
15126;SDS011;7664;52.008;4.748;2022-07-11T13:43:43;1.73;;;1.63;;
15126;SDS011;7664;52.008;4.748;2022-07-11T13:46:11;2.05;;;1.70;;
15126;SDS011;7664;52.008;4.748;2022-07-11T13:48:39;1.75;;;1.65;;
15126;SDS011;7664;52.008;4.748;2022-07-11T13:51:08;1.58;;;1.30;;
15126;SDS011;7664;52.008;4.748;2022-07-11T13:53:37;1.83;;;1.73;;
15126;SDS011;7664;52.008;4.748;2022-07-11T13:56:05;2.97;;;1.77;;
15126;SDS011;7664;52.008;4.748;2022-07-11T13:58:33;2.45;;;1.98;;
15126;SDS011;7664;52.008;4.748;2022-07-11T14:01:02;2.30;;;2.00;;
15126;SDS011;7664;52.008;4.748;2022-07-11T14:03:31;2.33;;;1.80;;
15126;SDS011;7664;52.008;4.748;2022-07-11T14:05:59;4.05;;;1.55;;
15126;SDS011;7664;52.008;4.748;2022-07-11T14:08:28;6.03;;;2.00;;
15126;SDS011;7664;52.008;4.748;2022-07-11T14:10:56;2.28;;;1.77;;
15126;SDS011;7664;52.008;4.748;2022-07-11T14:13:23;2.65;;;2.00;;
15126;SDS011;7664;52.008;4.748;2022-07-11T14:15:51;2.55;;;2.03;;
15126;SDS011;7664;52.008;4.748;2022-07-11T14:18:21;2.88;;;2.00;;
15126;SDS011;7664;52.008;4.748;2022-07-11T14:20:48;1.95;;;1.70;;
15126;SDS011;7664;52.008;4.748;2022-07-11T14:23:16;2.15;;;1.58;;
15126;SDS011;7664;52.008;4.748;2022-07-11T14:25:44;1.95;;;1.80;;
15126;SDS011;7664;52.008;4.748;2022-07-11T14:28:13;1.80;;;1.58;;
15126;SDS011;7664;52.008;4.748;2022-07-11T14:30:48;1.40;;;1.23;;
15126;SDS011;7664;52.008;4.748;2022-07-11T14:33:17;1.75;;;1.40;;
15126;SDS011;7664;52.008;4.748;2022-07-11T14:35:46;3.33;;;2.10;;
15126;SDS011;7664;52.008;4.748;2022-07-11T14:38:14;2.17;;;1.30;;
15126;SDS011;7664;52.008;4.748;2022-07-11T14:40:42;3.30;;;1.95;;
15126;SDS011;7664;52.008;4.748;2022-07-11T14:43:10;2.05;;;1.73;;
15126;SDS011;7664;52.008;4.748;2022-07-11T14:45:38;1.98;;;1.50;;
15126;SDS011;7664;52.008;4.748;2022-07-11T14:48:06;1.38;;;1.27;;
15126;SDS011;7664;52.008;4.748;2022-07-11T14:50:34;1.77;;;1.52;;
15126;SDS011;7664;52.008;4.748;2022-07-11T14:53:03;3.80;;;1.40;;
15126;SDS011;7664;52.008;4.748;2022-07-11T14:55:32;1.98;;;1.60;;
15126;SDS011;7664;52.008;4.748;2022-07-11T14:57:59;2.10;;;1.70;;
15126;SDS011;7664;52.008;4.748;2022-07-11T15:00:27;2.22;;;1.58;;
15126;SDS011;7664;52.008;4.748;2022-07-11T15:03:02;2.22;;;1.52;;
15126;SDS011;7664;52.008;4.748;2022-07-11T15:05:47;2.10;;;1.70;;
15126;SDS011;7664;52.008;4.748;2022-07-11T15:08:17;1.77;;;1.30;;
15126;SDS011;7664;52.008;4.748;2022-07-11T15:11:02;2.35;;;1.80;;
15126;SDS011;7664;52.008;4.748;2022-07-11T15:13:48;4.97;;;2.15;;
15126;SDS011;7664;52.008;4.748;2022-07-11T15:16:16;2.50;;;1.60;;
15126;SDS011;7664;52.008;4.748;2022-07-11T15:18:44;1.40;;;1.30;;
15126;SDS011;7664;52.008;4.748;2022-07-11T15:21:13;1.75;;;1.30;;
15126;SDS011;7664;52.008;4.748;2022-07-11T15:23:42;1.77;;;1.17;;
15126;SDS011;7664;52.008;4.748;2022-07-11T15:26:10;2.10;;;1.77;;
15126;SDS011;7664;52.008;4.748;2022-07-11T15:28:38;1.83;;;1.50;;
15126;SDS011;7664;52.008;4.748;2022-07-11T15:31:06;1.83;;;1.40;;